createdAt,value
2018-03-06T00:00:04.634Z,19.80
2018-03-06T00:01:09.786Z,19.80
2018-03-06T00:02:14.893Z,19.80
2018-03-06T00:03:19.864Z,19.80
2018-03-06T00:04:25.127Z,19.80
2018-03-06T00:05:30.359Z,19.80
2018-03-06T00:06:35.521Z,19.80
2018-03-06T00:08:48.146Z,19.80
2018-03-06T00:09:53.634Z,19.80
2018-03-06T00:10:58.728Z,19.80
2018-03-06T00:12:03.943Z,19.90
2018-03-06T00:13:09.054Z,19.80
2018-03-06T00:14:13.993Z,19.80
2018-03-06T00:15:19.044Z,19.80
2018-03-06T00:16:24.129Z,19.80
2018-03-06T00:17:29.287Z,19.80
2018-03-06T00:18:34.496Z,19.80
2018-03-06T00:19:39.698Z,19.80
2018-03-06T00:20:44.761Z,19.80
2018-03-06T00:21:49.877Z,19.90
2018-03-06T00:22:55.042Z,19.80
2018-03-06T00:24:00.272Z,19.80
2018-03-06T00:25:05.557Z,19.80
2018-03-06T00:26:10.783Z,19.80
2018-03-06T00:27:16.228Z,19.80
2018-03-06T00:28:21.370Z,19.80
2018-03-06T00:29:26.412Z,19.80
2018-03-06T00:30:31.659Z,19.80
2018-03-06T00:30:51.139Z,19.80
2018-03-06T00:31:09.347Z,19.80
2018-03-06T00:31:27.828Z,19.80
2018-03-06T00:32:33.056Z,19.80
2018-03-06T00:33:38.432Z,19.80
2018-03-06T00:34:43.835Z,19.90
2018-03-06T00:35:49.154Z,19.80
2018-03-06T00:36:54.496Z,19.80
2018-03-06T00:37:59.787Z,19.80
2018-03-06T00:39:05.281Z,19.80
2018-03-06T00:40:10.567Z,19.90
2018-03-06T00:41:16.107Z,19.80
2018-03-06T00:42:21.365Z,19.80
2018-03-06T00:43:26.818Z,19.80
2018-03-06T00:44:31.999Z,19.80
2018-03-06T00:45:37.751Z,19.80
2018-03-06T00:46:43.297Z,19.80
2018-03-06T00:47:48.703Z,19.80
2018-03-06T00:48:53.817Z,19.80
2018-03-06T00:49:59.048Z,19.80
2018-03-06T00:51:04.458Z,19.80
2018-03-06T00:52:09.930Z,19.90
2018-03-06T00:53:15.208Z,19.90
2018-03-06T00:54:20.397Z,19.90
2018-03-06T00:55:25.784Z,19.90
2018-03-06T00:56:30.994Z,19.80
2018-03-06T00:57:36.414Z,19.90
2018-03-06T00:58:41.606Z,19.90
2018-03-06T00:59:46.796Z,19.90
2018-03-06T01:00:52.118Z,19.90
2018-03-06T01:01:57.313Z,19.90
2018-03-06T01:03:02.594Z,19.80
2018-03-06T01:04:08.090Z,19.80
2018-03-06T01:05:13.453Z,19.90
2018-03-06T01:06:19.144Z,19.90
2018-03-06T01:07:24.610Z,19.80
2018-03-06T01:08:30.074Z,19.80
2018-03-06T01:09:35.596Z,19.90
2018-03-06T01:10:41.337Z,19.90
2018-03-06T01:11:46.846Z,19.80
2018-03-06T01:12:52.312Z,19.90
2018-03-06T01:13:57.905Z,19.80
2018-03-06T01:15:03.381Z,19.90
2018-03-06T01:16:09.082Z,19.90
2018-03-06T01:17:15.012Z,19.90
2018-03-06T01:18:20.663Z,19.90
2018-03-06T01:19:26.232Z,19.90
2018-03-06T01:20:31.678Z,19.90
2018-03-06T01:21:37.022Z,19.90
2018-03-06T01:22:42.928Z,19.90
2018-03-06T01:23:48.566Z,19.90
2018-03-06T01:24:55.771Z,19.80
2018-03-06T01:26:01.478Z,19.90
2018-03-06T01:27:07.546Z,19.90
2018-03-06T01:28:13.498Z,19.80
2018-03-06T01:29:20.196Z,19.90
2018-03-06T01:30:26.688Z,19.90
2018-03-06T01:31:32.202Z,19.90
2018-03-06T01:32:37.762Z,19.90
2018-03-06T01:33:43.179Z,19.90
2018-03-06T01:34:48.564Z,19.90
2018-03-06T01:35:54.191Z,19.90
2018-03-06T01:36:59.814Z,19.80
2018-03-06T01:38:05.246Z,19.80
2018-03-06T01:39:10.907Z,19.90
2018-03-06T01:40:16.248Z,19.90
2018-03-06T01:41:21.792Z,19.80
2018-03-06T01:42:27.188Z,19.80
2018-03-06T01:43:32.461Z,19.80
2018-03-06T01:44:37.729Z,19.80
2018-03-06T01:45:42.912Z,19.80
2018-03-06T01:46:48.033Z,19.80
2018-03-06T01:47:53.123Z,19.80
2018-03-06T01:48:58.316Z,19.90
2018-03-06T01:50:03.464Z,19.90
2018-03-06T01:51:08.495Z,19.90
2018-03-06T01:52:13.521Z,19.90
2018-03-06T01:53:18.751Z,19.90
2018-03-06T01:54:23.995Z,19.90
2018-03-06T01:55:29.310Z,19.90
2018-03-06T01:56:34.382Z,19.90
2018-03-06T01:57:39.409Z,19.90
2018-03-06T01:58:44.676Z,19.90
2018-03-06T01:59:49.716Z,19.90
2018-03-06T02:00:54.615Z,19.90
2018-03-06T02:01:59.559Z,19.90
2018-03-06T02:03:04.690Z,19.90
2018-03-06T02:04:09.781Z,19.90
2018-03-06T02:05:14.893Z,19.90
2018-03-06T02:06:20.031Z,19.90
2018-03-06T02:07:25.131Z,19.90
2018-03-06T02:08:30.198Z,19.90
2018-03-06T02:09:35.257Z,19.90
2018-03-06T02:10:40.539Z,19.90
2018-03-06T02:11:45.587Z,19.90
2018-03-06T02:12:50.738Z,19.90
2018-03-06T02:13:55.792Z,19.90
2018-03-06T02:15:00.773Z,19.90
2018-03-06T02:16:06.862Z,19.90
2018-03-06T02:17:11.941Z,19.90
2018-03-06T02:18:16.993Z,19.90
2018-03-06T02:19:22.034Z,19.90
2018-03-06T02:20:27.880Z,19.90
2018-03-06T02:21:33.064Z,19.90
2018-03-06T02:22:38.158Z,19.90
2018-03-06T02:23:43.188Z,19.90
2018-03-06T02:24:48.170Z,19.90
2018-03-06T02:25:53.283Z,19.90
2018-03-06T02:26:58.379Z,19.90
2018-03-06T02:28:03.315Z,19.90
2018-03-06T02:29:08.388Z,19.90
2018-03-06T02:30:13.293Z,19.90
2018-03-06T02:31:18.304Z,19.90
2018-03-06T02:32:23.486Z,19.90
2018-03-06T02:33:28.663Z,19.90
2018-03-06T02:34:33.862Z,19.90
2018-03-06T02:35:38.980Z,19.90
2018-03-06T02:36:44.052Z,19.90
2018-03-06T02:37:49.122Z,19.90
2018-03-06T02:38:54.362Z,19.90
2018-03-06T02:39:59.302Z,19.90
2018-03-06T02:41:04.393Z,19.90
2018-03-06T02:42:09.589Z,19.90
2018-03-06T02:43:14.738Z,19.90
2018-03-06T02:44:19.896Z,19.90
2018-03-06T02:45:25.006Z,19.90
2018-03-06T02:46:30.219Z,19.90
2018-03-06T02:47:35.297Z,19.90
2018-03-06T02:48:40.587Z,19.90
2018-03-06T02:49:45.768Z,19.90
2018-03-06T02:50:53.366Z,19.90
2018-03-06T02:51:58.732Z,19.90
2018-03-06T02:53:03.800Z,19.90
2018-03-06T02:54:08.740Z,19.90
2018-03-06T02:55:14.119Z,19.90
2018-03-06T02:56:19.245Z,19.90
2018-03-06T02:57:24.304Z,19.90
2018-03-06T02:58:29.291Z,19.90
2018-03-06T02:59:34.243Z,19.90
2018-03-06T03:00:39.506Z,19.90
2018-03-06T03:01:46.556Z,19.90
2018-03-06T03:02:52.275Z,19.90
2018-03-06T03:03:57.255Z,19.90
2018-03-06T03:05:02.301Z,19.90
2018-03-06T03:06:07.516Z,19.90
2018-03-06T03:07:12.539Z,19.90
2018-03-06T03:08:17.741Z,19.90
2018-03-06T03:09:22.841Z,19.90
2018-03-06T03:10:28.009Z,19.90
2018-03-06T03:11:33.165Z,19.90
2018-03-06T03:12:38.262Z,19.90
2018-03-06T03:13:43.285Z,19.90
2018-03-06T03:14:48.382Z,19.90
2018-03-06T03:15:53.421Z,19.90
2018-03-06T03:16:58.524Z,19.90
2018-03-06T03:18:03.495Z,19.90
2018-03-06T03:19:08.796Z,19.90
2018-03-06T03:20:14.082Z,19.80
2018-03-06T03:21:19.444Z,19.90
2018-03-06T03:22:24.775Z,19.90
2018-03-06T03:23:29.957Z,19.90
2018-03-06T03:24:34.975Z,19.90
2018-03-06T03:25:40.056Z,19.90
2018-03-06T03:26:45.259Z,19.90
2018-03-06T03:27:50.336Z,19.90
2018-03-06T03:28:55.508Z,19.80
2018-03-06T03:30:00.699Z,19.90
2018-03-06T03:31:05.950Z,19.90
2018-03-06T03:32:11.021Z,19.90
2018-03-06T03:33:16.187Z,19.90
2018-03-06T03:34:21.290Z,19.90
2018-03-06T03:35:26.410Z,19.90
2018-03-06T03:36:31.592Z,19.90
2018-03-06T03:37:36.759Z,19.90
2018-03-06T03:38:41.913Z,19.90
2018-03-06T03:39:47.226Z,19.90
2018-03-06T03:40:52.426Z,19.90
2018-03-06T03:41:57.373Z,19.90
2018-03-06T03:43:02.459Z,19.90
2018-03-06T03:44:07.577Z,19.90
2018-03-06T03:45:12.554Z,19.90
2018-03-06T03:46:17.470Z,19.90
2018-03-06T03:47:22.561Z,19.90
2018-03-06T03:48:27.536Z,19.90
2018-03-06T03:49:32.665Z,19.90
2018-03-06T03:50:37.727Z,19.90
2018-03-06T03:51:42.623Z,19.90
2018-03-06T03:52:47.713Z,19.90
2018-03-06T03:53:52.577Z,19.90
2018-03-06T03:54:57.693Z,19.90
2018-03-06T03:56:02.554Z,19.90
2018-03-06T03:57:07.554Z,19.90
2018-03-06T03:58:12.596Z,19.90
2018-03-06T03:59:17.560Z,19.90
2018-03-06T04:00:22.492Z,19.90
2018-03-06T04:01:27.338Z,19.90
2018-03-06T04:02:32.245Z,19.90
2018-03-06T04:03:37.259Z,19.90
2018-03-06T04:04:42.292Z,19.90
2018-03-06T04:05:47.317Z,19.90
2018-03-06T04:06:52.214Z,19.90
2018-03-06T04:07:57.013Z,19.90
2018-03-06T04:09:01.917Z,19.90
2018-03-06T04:10:07.038Z,19.90
2018-03-06T04:11:12.015Z,19.90
2018-03-06T04:12:17.096Z,19.90
2018-03-06T04:13:22.217Z,19.90
2018-03-06T04:14:27.337Z,19.90
2018-03-06T04:15:32.373Z,19.90
2018-03-06T04:16:37.272Z,19.90
2018-03-06T04:17:42.346Z,19.90
2018-03-06T04:18:47.378Z,19.90
2018-03-06T04:19:52.274Z,19.90
2018-03-06T04:20:57.350Z,19.90
2018-03-06T04:22:02.405Z,19.90
2018-03-06T04:23:07.271Z,19.90
2018-03-06T04:24:12.222Z,19.90
2018-03-06T04:25:17.174Z,19.90
2018-03-06T04:26:22.256Z,19.90
2018-03-06T04:27:27.312Z,19.90
2018-03-06T04:28:32.313Z,19.90
2018-03-06T04:29:37.112Z,19.90
2018-03-06T04:30:41.995Z,19.90
2018-03-06T04:31:47.091Z,19.90
2018-03-06T04:32:52.130Z,19.90
2018-03-06T04:33:56.946Z,19.90
2018-03-06T04:35:02.738Z,19.90
2018-03-06T04:36:07.534Z,19.90
2018-03-06T04:37:12.388Z,19.90
2018-03-06T04:38:17.435Z,19.90
2018-03-06T04:39:22.492Z,19.90
2018-03-06T04:40:27.452Z,20.00
2018-03-06T04:41:32.314Z,19.90
2018-03-06T04:42:37.394Z,19.90
2018-03-06T04:43:42.282Z,19.90
2018-03-06T04:44:47.280Z,19.90
2018-03-06T04:45:52.317Z,19.90
2018-03-06T04:46:57.315Z,19.90
2018-03-06T04:48:02.361Z,19.90
2018-03-06T04:49:07.279Z,19.90
2018-03-06T04:50:12.398Z,19.90
2018-03-06T04:51:17.498Z,19.90
2018-03-06T04:52:22.454Z,19.90
2018-03-06T04:53:27.471Z,19.90
2018-03-06T04:54:32.232Z,19.90
2018-03-06T04:55:37.330Z,19.90
2018-03-06T04:56:42.108Z,19.90
2018-03-06T04:57:47.230Z,19.90
2018-03-06T04:58:52.259Z,20.00
2018-03-06T04:59:57.115Z,19.90
2018-03-06T05:01:01.991Z,19.90
2018-03-06T05:02:06.986Z,19.90
2018-03-06T05:03:12.328Z,19.90
2018-03-06T05:04:17.218Z,19.90
2018-03-06T05:05:22.287Z,19.90
2018-03-06T05:06:27.332Z,19.90
2018-03-06T05:07:32.307Z,19.90
2018-03-06T05:08:37.395Z,19.90
2018-03-06T05:09:42.458Z,19.90
2018-03-06T05:10:47.498Z,19.90
2018-03-06T05:11:52.604Z,19.90
2018-03-06T05:12:57.544Z,19.80
2018-03-06T05:14:02.527Z,19.90
2018-03-06T05:15:07.525Z,19.80
2018-03-06T05:16:12.644Z,19.80
2018-03-06T05:17:17.652Z,19.80
2018-03-06T05:18:22.658Z,19.80
2018-03-06T05:19:27.520Z,19.80
2018-03-06T05:20:32.452Z,19.80
2018-03-06T05:21:37.502Z,19.90
2018-03-06T05:22:42.466Z,19.80
2018-03-06T05:23:47.392Z,19.80
2018-03-06T05:24:52.372Z,19.80
2018-03-06T05:25:57.321Z,19.80
2018-03-06T05:27:02.220Z,19.80
2018-03-06T05:28:07.384Z,19.80
2018-03-06T05:29:12.269Z,19.80
2018-03-06T05:30:17.186Z,19.80
2018-03-06T05:31:22.302Z,19.80
2018-03-06T05:32:27.147Z,19.80
2018-03-06T05:33:31.978Z,19.80
2018-03-06T05:34:36.873Z,19.80
2018-03-06T05:35:41.736Z,19.80
2018-03-06T05:36:46.607Z,19.80
2018-03-06T05:37:52.564Z,19.80
2018-03-06T05:38:57.492Z,19.80
2018-03-06T05:40:02.555Z,19.80
2018-03-06T05:41:07.407Z,19.80
2018-03-06T05:42:12.298Z,19.80
2018-03-06T05:43:17.354Z,19.80
2018-03-06T05:44:22.393Z,19.80
2018-03-06T05:45:27.295Z,19.80
2018-03-06T05:46:32.980Z,19.80
2018-03-06T05:47:37.886Z,19.80
2018-03-06T05:48:42.749Z,19.80
2018-03-06T05:49:47.682Z,19.80
2018-03-06T05:50:56.244Z,19.80
2018-03-06T05:52:02.139Z,19.70
2018-03-06T05:53:07.378Z,19.50
2018-03-06T05:54:12.529Z,19.30
2018-03-06T05:55:17.522Z,19.20
2018-03-06T05:56:22.643Z,19.00
2018-03-06T05:57:27.808Z,18.90
2018-03-06T05:58:32.920Z,18.80
2018-03-06T05:59:37.938Z,18.70
2018-03-06T06:00:43.022Z,18.70
2018-03-06T06:01:47.938Z,18.60
2018-03-06T06:02:52.949Z,18.50
2018-03-06T06:03:57.830Z,18.50
2018-03-06T06:05:02.929Z,18.40
2018-03-06T06:06:08.652Z,18.40
2018-03-06T06:07:13.981Z,18.40
2018-03-06T06:08:19.068Z,18.30
2018-03-06T06:09:24.228Z,18.30
2018-03-06T06:10:29.223Z,18.20
2018-03-06T06:11:36.435Z,18.20
2018-03-06T06:12:41.595Z,18.20
2018-03-06T06:13:46.878Z,18.10
2018-03-06T06:14:51.965Z,18.10
2018-03-06T06:15:58.486Z,18.10
2018-03-06T06:17:03.319Z,18.00
2018-03-06T06:18:08.447Z,18.00
2018-03-06T06:19:13.602Z,18.10
2018-03-06T06:20:18.662Z,18.20
2018-03-06T06:21:23.587Z,18.20
2018-03-06T06:22:28.641Z,18.30
2018-03-06T06:23:34.101Z,18.40
2018-03-06T06:24:38.974Z,18.40
2018-03-06T06:25:43.953Z,18.50
2018-03-06T06:26:48.944Z,18.50
2018-03-06T06:27:53.876Z,18.60
2018-03-06T06:28:59.010Z,18.60
2018-03-06T06:30:04.136Z,18.60
2018-03-06T06:31:09.089Z,18.70
2018-03-06T06:32:14.183Z,18.70
2018-03-06T06:33:19.062Z,18.70
2018-03-06T06:34:24.053Z,18.80
2018-03-06T06:35:28.989Z,18.80
2018-03-06T06:36:33.978Z,18.90
2018-03-06T06:37:39.056Z,18.90
2018-03-06T06:38:44.129Z,19.00
2018-03-06T06:39:49.164Z,19.00
2018-03-06T06:40:54.307Z,19.10
2018-03-06T06:41:59.504Z,19.10
2018-03-06T06:43:04.720Z,19.20
2018-03-06T06:44:09.753Z,19.20
2018-03-06T06:45:14.646Z,19.30
2018-03-06T06:46:19.758Z,19.30
2018-03-06T06:47:24.926Z,19.30
2018-03-06T06:48:30.592Z,19.40
2018-03-06T06:49:35.562Z,19.40
2018-03-06T06:50:40.546Z,19.40
2018-03-06T06:51:45.506Z,19.40
2018-03-06T06:52:51.751Z,19.50
2018-03-06T06:53:56.552Z,19.50
2018-03-06T06:55:01.427Z,19.50
2018-03-06T06:56:06.422Z,19.50
2018-03-06T06:57:11.569Z,19.50
2018-03-06T06:58:16.620Z,19.50
2018-03-06T06:59:21.656Z,19.60
2018-03-06T07:00:26.482Z,19.60
2018-03-06T07:01:31.405Z,19.60
2018-03-06T07:02:36.429Z,19.60
2018-03-06T07:03:41.856Z,19.60
2018-03-06T07:04:47.246Z,19.70
2018-03-06T07:05:52.190Z,19.70
2018-03-06T07:06:57.199Z,19.70
2018-03-06T07:08:02.159Z,19.70
2018-03-06T07:09:07.249Z,19.70
2018-03-06T07:10:12.245Z,19.70
2018-03-06T07:11:17.265Z,19.70
2018-03-06T07:12:22.155Z,19.80
2018-03-06T07:13:26.955Z,19.80
2018-03-06T07:14:32.067Z,19.80
2018-03-06T07:15:36.821Z,19.80
2018-03-06T07:16:42.228Z,19.80
2018-03-06T07:17:47.279Z,19.80
2018-03-06T07:18:52.332Z,19.80
2018-03-06T07:19:57.333Z,19.90
2018-03-06T07:21:02.204Z,19.90
2018-03-06T07:22:06.977Z,19.90
2018-03-06T07:23:11.758Z,20.00
2018-03-06T07:24:16.838Z,20.10
2018-03-06T07:25:21.848Z,20.10
2018-03-06T07:26:26.860Z,20.00
2018-03-06T07:27:31.886Z,20.00
2018-03-06T07:28:36.802Z,20.00
2018-03-06T07:29:42.017Z,20.00
2018-03-06T07:30:47.629Z,20.10
2018-03-06T07:31:52.562Z,20.10
2018-03-06T07:32:57.491Z,20.10
2018-03-06T07:34:02.379Z,20.10
2018-03-06T07:35:07.291Z,20.10
2018-03-06T07:36:12.333Z,20.10
2018-03-06T07:37:17.296Z,20.10
2018-03-06T07:38:22.913Z,20.10
2018-03-06T07:39:27.965Z,20.10
2018-03-06T07:40:33.759Z,20.10
2018-03-06T07:41:38.743Z,20.10
2018-03-06T07:42:43.571Z,20.10
2018-03-06T07:43:48.671Z,20.10
2018-03-06T07:44:53.554Z,20.10
2018-03-06T07:45:58.638Z,20.20
2018-03-06T07:47:03.660Z,20.20
2018-03-06T07:48:08.510Z,20.20
2018-03-06T07:49:13.453Z,20.10
2018-03-06T07:50:18.908Z,20.20
2018-03-06T07:51:24.154Z,20.20
2018-03-06T07:52:28.984Z,20.20
2018-03-06T07:53:33.866Z,20.20
2018-03-06T07:54:38.964Z,20.20
2018-03-06T07:55:44.013Z,20.20
2018-03-06T07:56:48.964Z,20.20
2018-03-06T07:57:54.004Z,20.10
2018-03-06T07:58:58.909Z,20.10
2018-03-06T08:00:04.054Z,20.00
2018-03-06T08:01:09.050Z,20.00
2018-03-06T08:02:13.958Z,20.00
2018-03-06T08:03:18.975Z,20.00
2018-03-06T08:04:23.839Z,20.00
2018-03-06T08:05:28.753Z,20.00
2018-03-06T08:06:33.843Z,20.00
2018-03-06T08:07:38.950Z,20.00
2018-03-06T08:08:43.813Z,20.00
2018-03-06T08:09:48.655Z,20.00
2018-03-06T08:10:53.723Z,20.10
2018-03-06T08:11:59.412Z,20.00
2018-03-06T08:13:04.330Z,20.00
2018-03-06T08:14:09.355Z,20.00
2018-03-06T08:15:14.261Z,20.00
2018-03-06T08:16:19.308Z,20.00
2018-03-06T08:17:24.222Z,20.00
2018-03-06T08:18:29.287Z,20.00
2018-03-06T08:19:34.304Z,20.00
2018-03-06T08:20:39.362Z,20.00
2018-03-06T08:21:44.394Z,20.00
2018-03-06T08:22:49.381Z,20.00
2018-03-06T08:23:54.454Z,20.00
2018-03-06T08:24:59.289Z,20.00
2018-03-06T08:26:04.382Z,20.00
2018-03-06T08:27:09.275Z,20.00
2018-03-06T08:28:14.046Z,20.00
2018-03-06T08:29:18.829Z,20.00
2018-03-06T08:30:23.821Z,20.00
2018-03-06T08:31:28.685Z,20.00
2018-03-06T08:32:33.714Z,20.00
2018-03-06T08:33:38.712Z,20.00
2018-03-06T08:34:44.403Z,20.00
2018-03-06T08:35:49.549Z,20.00
2018-03-06T08:36:54.391Z,20.00
2018-03-06T08:37:59.272Z,20.00
2018-03-06T08:39:04.083Z,20.00
2018-03-06T08:40:09.130Z,20.00
2018-03-06T08:41:13.948Z,20.00
2018-03-06T08:42:18.858Z,20.00
2018-03-06T08:43:23.718Z,20.00
2018-03-06T08:44:28.598Z,20.00
2018-03-06T08:45:33.695Z,20.00
2018-03-06T08:46:38.583Z,20.00
2018-03-06T08:47:43.711Z,20.00
2018-03-06T08:48:48.603Z,20.00
2018-03-06T08:49:53.469Z,20.00
2018-03-06T08:50:58.482Z,20.00
2018-03-06T08:52:03.345Z,20.00
2018-03-06T08:53:08.469Z,20.00
2018-03-06T08:54:13.567Z,20.00
2018-03-06T08:55:18.732Z,20.00
2018-03-06T08:56:23.784Z,20.00
2018-03-06T08:57:28.728Z,20.10
2018-03-06T08:58:33.589Z,20.20
2018-03-06T08:59:38.436Z,20.20
2018-03-06T09:00:43.258Z,20.20
2018-03-06T09:01:48.391Z,20.20
2018-03-06T09:02:53.488Z,20.30
2018-03-06T09:03:58.568Z,20.30
2018-03-06T09:05:03.657Z,20.30
2018-03-06T09:06:08.712Z,20.30
2018-03-06T09:07:13.640Z,20.30
2018-03-06T09:08:18.675Z,20.30
2018-03-06T09:09:23.620Z,20.30
2018-03-06T09:10:28.536Z,20.30
2018-03-06T09:11:33.394Z,20.30
2018-03-06T09:12:38.244Z,20.30
2018-03-06T09:13:43.074Z,20.30
2018-03-06T09:14:47.858Z,20.30
2018-03-06T09:15:52.691Z,20.30
2018-03-06T09:16:57.674Z,20.30
2018-03-06T09:18:02.682Z,20.30
2018-03-06T09:19:07.721Z,20.40
2018-03-06T09:20:12.782Z,20.30
2018-03-06T09:21:17.915Z,20.30
2018-03-06T09:22:22.971Z,20.30
2018-03-06T09:23:28.006Z,20.30
2018-03-06T09:24:33.030Z,20.30
2018-03-06T09:25:37.857Z,20.30
2018-03-06T09:26:43.010Z,20.30
2018-03-06T09:27:48.384Z,20.30
2018-03-06T09:28:53.174Z,20.30
2018-03-06T09:29:57.981Z,20.30
2018-03-06T09:31:03.091Z,20.30
2018-03-06T09:32:07.966Z,20.30
2018-03-06T09:33:12.834Z,20.30
2018-03-06T09:34:17.831Z,20.30
2018-03-06T09:35:22.810Z,20.30
2018-03-06T09:36:27.788Z,20.30
2018-03-06T09:37:32.639Z,20.30
2018-03-06T09:38:37.669Z,20.30
2018-03-06T09:39:42.527Z,20.30
2018-03-06T09:40:47.385Z,20.30
2018-03-06T09:41:52.202Z,20.30
2018-03-06T09:42:57.195Z,20.30
2018-03-06T09:44:02.028Z,20.30
2018-03-06T09:45:07.041Z,20.30
2018-03-06T09:46:12.285Z,20.30
2018-03-06T09:47:17.532Z,20.30
2018-03-06T09:48:22.575Z,20.30
2018-03-06T09:49:27.408Z,20.30
2018-03-06T09:50:32.584Z,20.30
2018-03-06T09:51:37.943Z,20.30
2018-03-06T09:52:42.930Z,20.30
2018-03-06T09:53:47.990Z,20.30
2018-03-06T09:54:52.772Z,20.30
2018-03-06T09:55:57.768Z,20.30
2018-03-06T09:57:02.860Z,20.30
2018-03-06T09:58:07.704Z,20.30
2018-03-06T09:59:12.742Z,20.30
2018-03-06T10:00:17.605Z,20.30
2018-03-06T10:01:22.645Z,20.30
2018-03-06T10:02:27.406Z,20.30
2018-03-06T10:03:32.244Z,20.30
2018-03-06T10:04:37.311Z,20.30
2018-03-06T10:05:43.407Z,20.30
2018-03-06T10:06:49.457Z,20.30
2018-03-06T10:07:55.296Z,20.30
2018-03-06T10:09:01.370Z,20.30
2018-03-06T10:10:07.409Z,20.30
2018-03-06T10:11:13.302Z,20.40
2018-03-06T10:12:19.289Z,20.40
2018-03-06T10:13:25.088Z,20.40
2018-03-06T10:14:31.015Z,20.30
2018-03-06T10:15:36.918Z,20.30
2018-03-06T10:16:43.072Z,20.30
2018-03-06T10:17:48.894Z,20.30
2018-03-06T10:18:54.922Z,20.30
2018-03-06T10:20:00.879Z,20.30
2018-03-06T10:21:06.731Z,20.30
2018-03-06T10:22:12.545Z,20.40
2018-03-06T10:23:18.462Z,20.40
2018-03-06T10:24:24.345Z,20.40
2018-03-06T10:25:30.319Z,20.40
2018-03-06T10:26:36.380Z,20.40
2018-03-06T10:27:42.238Z,20.40
2018-03-06T10:28:48.131Z,20.40
2018-03-06T10:29:54.029Z,20.40
2018-03-06T10:30:59.954Z,20.40
2018-03-06T10:32:05.903Z,20.40
2018-03-06T10:33:11.763Z,20.40
2018-03-06T10:34:17.565Z,20.40
2018-03-06T10:35:23.366Z,20.40
2018-03-06T10:36:29.267Z,20.50
2018-03-06T10:37:35.122Z,20.50
2018-03-06T10:38:40.985Z,20.50
2018-03-06T10:39:46.867Z,20.50
2018-03-06T10:40:52.769Z,20.40
2018-03-06T10:41:58.574Z,20.40
2018-03-06T10:43:05.836Z,20.40
2018-03-06T10:44:11.656Z,20.30
2018-03-06T10:45:17.560Z,20.30
2018-03-06T10:46:23.421Z,20.30
2018-03-06T10:47:29.247Z,20.20
2018-03-06T10:48:35.113Z,20.20
2018-03-06T10:49:41.048Z,20.20
2018-03-06T10:50:47.435Z,20.20
2018-03-06T10:51:53.274Z,20.20
2018-03-06T10:52:59.180Z,20.10
2018-03-06T10:54:05.114Z,20.10
2018-03-06T10:55:11.068Z,20.10
2018-03-06T10:56:16.876Z,20.10
2018-03-06T10:57:22.802Z,20.10
2018-03-06T10:58:28.747Z,20.10
2018-03-06T10:59:34.471Z,20.10
2018-03-06T11:00:40.332Z,20.10
2018-03-06T11:01:46.175Z,20.10
2018-03-06T11:02:52.071Z,20.00
2018-03-06T11:03:57.924Z,20.10
2018-03-06T11:05:02.960Z,20.00
2018-03-06T11:06:07.917Z,20.00
2018-03-06T11:07:12.927Z,20.00
2018-03-06T11:08:17.800Z,20.00
2018-03-06T11:09:22.826Z,20.00
2018-03-06T11:10:27.688Z,20.10
2018-03-06T11:11:32.646Z,20.00
2018-03-06T11:12:37.552Z,20.00
2018-03-06T11:13:42.642Z,20.00
2018-03-06T11:14:47.437Z,20.00
2018-03-06T11:15:52.257Z,20.00
2018-03-06T11:16:57.056Z,20.00
2018-03-06T11:18:02.067Z,20.00
2018-03-06T11:19:06.864Z,20.00
2018-03-06T11:20:11.706Z,20.00
2018-03-06T11:21:16.537Z,20.00
2018-03-06T11:22:21.540Z,20.00
2018-03-06T11:23:26.529Z,20.00
2018-03-06T11:24:31.326Z,20.00
2018-03-06T11:25:36.170Z,20.00
2018-03-06T11:26:41.180Z,20.00
2018-03-06T11:27:46.140Z,20.00
2018-03-06T11:28:51.151Z,20.00
2018-03-06T11:29:56.088Z,20.00
2018-03-06T11:31:00.839Z,20.00
2018-03-06T11:32:05.644Z,20.00
2018-03-06T11:33:10.522Z,20.00
2018-03-06T11:34:15.515Z,20.00
2018-03-06T11:35:20.524Z,20.00
2018-03-06T11:36:25.414Z,20.00
2018-03-06T11:37:30.273Z,20.00
2018-03-06T11:38:35.314Z,20.00
2018-03-06T11:39:40.197Z,20.00
2018-03-06T11:40:45.222Z,20.00
2018-03-06T11:41:50.660Z,20.00
2018-03-06T11:42:55.633Z,20.00
2018-03-06T11:44:00.464Z,20.00
2018-03-06T11:45:05.314Z,20.00
2018-03-06T11:46:10.792Z,20.00
2018-03-06T11:47:15.796Z,20.00
2018-03-06T11:48:20.567Z,20.00
2018-03-06T11:49:25.388Z,20.00
2018-03-06T11:50:30.252Z,20.00
2018-03-06T11:51:35.056Z,20.00
2018-03-06T11:52:40.126Z,20.00
2018-03-06T11:53:44.971Z,20.00
2018-03-06T11:54:49.880Z,20.00
2018-03-06T11:55:54.970Z,20.00
2018-03-06T11:56:59.946Z,20.00
2018-03-06T11:58:04.822Z,20.00
2018-03-06T11:59:09.681Z,19.90
2018-03-06T12:00:14.520Z,20.00
2018-03-06T12:01:19.529Z,20.00
2018-03-06T12:02:24.435Z,20.00
2018-03-06T12:03:29.417Z,20.00
2018-03-06T12:04:34.311Z,20.00
2018-03-06T12:05:39.185Z,20.00
2018-03-06T12:06:44.106Z,20.00
2018-03-06T12:07:48.924Z,20.00
2018-03-06T12:08:53.930Z,20.00
2018-03-06T12:09:58.962Z,20.00
2018-03-06T12:11:03.824Z,20.00
2018-03-06T12:12:09.692Z,20.00
2018-03-06T12:13:14.521Z,20.00
2018-03-06T12:14:19.305Z,20.00
2018-03-06T12:15:24.319Z,20.00
2018-03-06T12:16:29.404Z,20.00
2018-03-06T12:17:34.433Z,20.00
2018-03-06T12:18:39.513Z,20.00
2018-03-06T12:19:44.315Z,20.00
2018-03-06T12:20:49.371Z,20.00
2018-03-06T12:21:54.195Z,20.00
2018-03-06T12:22:59.213Z,20.00
2018-03-06T12:24:04.254Z,20.00
2018-03-06T12:25:09.303Z,20.00
2018-03-06T12:26:14.391Z,20.00
2018-03-06T12:27:19.298Z,20.00
2018-03-06T12:28:24.180Z,20.00
2018-03-06T12:29:29.154Z,20.00
2018-03-06T12:30:34.081Z,19.90
2018-03-06T12:31:39.258Z,20.00
2018-03-06T12:32:44.313Z,20.00
2018-03-06T12:33:49.449Z,20.00
2018-03-06T12:34:54.478Z,20.00
2018-03-06T12:35:59.374Z,20.00
2018-03-06T12:37:04.286Z,20.00
2018-03-06T12:38:09.123Z,20.00
2018-03-06T12:39:14.505Z,20.00
2018-03-06T12:40:20.227Z,20.00
2018-03-06T12:41:25.094Z,20.00
2018-03-06T12:42:29.992Z,19.90
2018-03-06T12:43:34.997Z,19.90
2018-03-06T12:44:40.023Z,20.00
2018-03-06T12:45:44.995Z,20.00
2018-03-06T12:46:49.816Z,20.00
2018-03-06T12:47:54.640Z,20.00
2018-03-06T12:48:59.493Z,20.00
2018-03-06T12:50:04.458Z,20.00
2018-03-06T12:51:09.507Z,20.00
2018-03-06T12:52:14.304Z,20.00
2018-03-06T12:53:19.317Z,20.10
2018-03-06T12:54:24.094Z,20.10
2018-03-06T12:55:28.932Z,20.10
2018-03-06T12:56:33.943Z,20.10
2018-03-06T12:57:38.939Z,20.10
2018-03-06T12:58:43.749Z,20.10
2018-03-06T12:59:48.517Z,20.10
2018-03-06T13:00:53.378Z,20.10
2018-03-06T13:01:58.160Z,20.10
2018-03-06T13:03:03.152Z,20.10
2018-03-06T13:04:08.156Z,20.10
2018-03-06T13:05:12.980Z,20.10
2018-03-06T13:06:17.817Z,20.10
2018-03-06T13:07:22.694Z,20.10
2018-03-06T13:08:27.555Z,20.10
2018-03-06T13:09:32.416Z,20.10
2018-03-06T13:10:38.130Z,20.10
2018-03-06T13:11:43.145Z,20.20
2018-03-06T13:12:48.027Z,20.10
2018-03-06T13:13:52.861Z,20.20
2018-03-06T13:14:57.653Z,20.20
2018-03-06T13:16:02.522Z,20.20
2018-03-06T13:17:07.356Z,20.20
2018-03-06T13:18:12.247Z,20.20
2018-03-06T13:19:17.270Z,20.20
2018-03-06T13:20:22.167Z,20.20
2018-03-06T13:21:27.009Z,20.20
2018-03-06T13:22:31.979Z,20.20
2018-03-06T13:23:36.937Z,20.20
2018-03-06T13:24:41.787Z,20.20
2018-03-06T13:25:46.833Z,20.20
2018-03-06T13:26:51.899Z,20.20
2018-03-06T13:27:56.918Z,20.20
2018-03-06T13:29:01.942Z,20.20
2018-03-06T13:30:06.964Z,20.20
2018-03-06T13:31:11.793Z,20.20
2018-03-06T13:32:16.772Z,20.20
2018-03-06T13:33:21.762Z,20.20
2018-03-06T13:34:26.574Z,20.20
2018-03-06T13:35:31.406Z,20.20
2018-03-06T13:36:36.442Z,20.20
2018-03-06T13:37:41.511Z,20.20
2018-03-06T13:38:46.321Z,20.20
2018-03-06T13:39:51.327Z,20.20
2018-03-06T13:40:56.129Z,20.20
2018-03-06T13:42:01.145Z,20.20
2018-03-06T13:43:07.674Z,20.20
2018-03-06T13:44:12.640Z,20.20
2018-03-06T13:45:17.619Z,20.20
2018-03-06T13:46:22.622Z,20.20
2018-03-06T13:47:27.442Z,20.20
2018-03-06T13:48:32.167Z,20.20
2018-03-06T13:49:37.002Z,20.20
2018-03-06T13:50:42.058Z,20.20
2018-03-06T13:51:47.026Z,20.20
2018-03-06T13:52:51.797Z,20.20
2018-03-06T13:53:57.549Z,20.20
2018-03-06T13:55:02.653Z,20.20
2018-03-06T13:56:07.641Z,20.20
2018-03-06T13:57:12.527Z,20.20